createdAt,value
2019-01-21T00:01:30.264Z,24.07
2019-01-21T00:03:59.498Z,24.67
2019-01-21T00:06:28.918Z,24.30
2019-01-21T00:08:58.312Z,26.77
2019-01-21T00:11:27.552Z,24.60
2019-01-21T00:13:57.207Z,26.57
2019-01-21T00:16:26.454Z,23.77
2019-01-21T00:18:55.880Z,25.40
2019-01-21T00:21:25.218Z,24.30
2019-01-21T00:23:54.541Z,21.83
2019-01-21T00:26:23.896Z,24.30
2019-01-21T00:28:53.241Z,23.80
2019-01-21T00:31:22.508Z,25.47
2019-01-21T00:33:51.905Z,25.20
2019-01-21T00:36:21.237Z,25.60
2019-01-21T00:38:50.432Z,24.50
2019-01-21T00:41:19.936Z,23.53
2019-01-21T00:43:49.309Z,25.90
2019-01-21T00:46:18.486Z,24.57
2019-01-21T00:48:47.908Z,26.07
2019-01-21T00:51:17.259Z,22.80
2019-01-21T00:53:46.611Z,22.57
2019-01-21T00:56:16.042Z,24.50
2019-01-21T00:58:45.481Z,22.77
2019-01-21T01:01:14.930Z,22.67
2019-01-21T01:03:44.292Z,22.17
2019-01-21T01:06:14.041Z,23.60
2019-01-21T01:08:43.455Z,20.67
2019-01-21T01:11:12.836Z,22.80
2019-01-21T01:13:42.219Z,23.10
2019-01-21T01:16:11.467Z,22.83
2019-01-21T01:18:41.226Z,23.50
2019-01-21T01:21:10.659Z,24.23
2019-01-21T01:23:40.443Z,23.93
2019-01-21T01:26:09.797Z,23.50
2019-01-21T01:28:39.368Z,21.70
2019-01-21T01:31:08.840Z,22.90
2019-01-21T01:33:38.156Z,23.30
2019-01-21T01:36:07.497Z,24.40
2019-01-21T01:38:36.930Z,24.30
2019-01-21T01:41:06.436Z,24.00
2019-01-21T01:43:35.854Z,24.67
2019-01-21T01:46:05.505Z,26.73
2019-01-21T01:48:34.912Z,24.10
2019-01-21T01:51:04.476Z,24.00
2019-01-21T01:53:34.810Z,23.57
2019-01-21T01:56:04.409Z,25.03
2019-01-21T01:58:33.883Z,24.63
2019-01-21T02:01:04.408Z,24.90
2019-01-21T02:03:34.085Z,22.80
2019-01-21T02:06:03.516Z,24.17
2019-01-21T02:08:32.931Z,22.87
2019-01-21T02:11:02.370Z,24.87
2019-01-21T02:13:31.814Z,24.90
2019-01-21T02:16:01.137Z,24.17
2019-01-21T02:18:30.749Z,24.60
2019-01-21T02:21:02.951Z,24.40
2019-01-21T02:23:42.416Z,24.40
2019-01-21T02:26:18.891Z,21.47
2019-01-21T02:28:59.930Z,23.43
2019-01-21T02:32:05.067Z,23.43
2019-01-21T02:34:48.227Z,22.30
2019-01-21T02:37:53.510Z,22.10
2019-01-21T02:41:18.996Z,20.90
2019-01-21T02:43:55.472Z,20.73
2019-01-21T02:47:17.346Z,20.87
2019-01-21T02:50:39.648Z,20.33
2019-01-21T02:53:26.723Z,22.30
2019-01-21T02:56:45.362Z,20.63
2019-01-21T02:59:56.065Z,21.93
2019-01-21T03:02:54.095Z,23.90
2019-01-21T03:05:49.143Z,20.17
2019-01-21T03:08:43.722Z,20.80
2019-01-21T03:11:25.623Z,21.73
2019-01-21T03:14:26.512Z,22.30
2019-01-21T03:17:52.384Z,21.53
2019-01-21T03:20:58.571Z,20.70
2019-01-21T03:24:19.843Z,22.07
2019-01-21T03:27:44.928Z,21.07
2019-01-21T03:30:37.465Z,20.90
2019-01-21T03:33:45.017Z,19.70
2019-01-21T03:36:48.432Z,20.93
2019-01-21T03:39:45.573Z,20.50
2019-01-21T03:42:42.562Z,20.10
2019-01-21T03:45:56.671Z,19.47
2019-01-21T03:48:48.312Z,20.97
2019-01-21T03:52:08.730Z,21.70
2019-01-21T03:54:49.216Z,21.00
2019-01-21T03:58:02.447Z,21.83
2019-01-21T04:00:38.444Z,17.43
2019-01-21T04:03:42.491Z,20.97
2019-01-21T04:06:20.469Z,20.63
2019-01-21T04:09:31.119Z,21.60
2019-01-21T04:12:25.821Z,19.73
2019-01-21T04:15:38.556Z,19.93
2019-01-21T04:18:46.446Z,19.70
2019-01-21T04:22:01.618Z,18.70
2019-01-21T04:24:53.761Z,19.67
2019-01-21T04:28:03.097Z,19.50
2019-01-21T04:31:10.473Z,21.87
2019-01-21T04:34:10.821Z,19.10
2019-01-21T04:37:26.808Z,21.77
2019-01-21T04:40:06.268Z,19.10
2019-01-21T04:43:15.492Z,20.03
2019-01-21T04:46:27.257Z,19.73
2019-01-21T04:49:48.578Z,18.30
2019-01-21T04:52:47.515Z,18.10
2019-01-21T04:55:49.048Z,20.20
2019-01-21T04:58:52.290Z,20.60
2019-01-21T05:02:04.285Z,19.63
2019-01-21T05:05:14.723Z,20.70
2019-01-21T05:08:26.465Z,19.63
2019-01-21T05:11:37.176Z,19.37
2019-01-21T05:15:05.989Z,19.40
2019-01-21T05:18:28.539Z,17.10
2019-01-21T05:21:37.660Z,19.00
2019-01-21T05:24:40.935Z,19.83
2019-01-21T05:27:51.591Z,18.83
2019-01-21T05:30:45.802Z,22.40
2019-01-21T05:33:51.110Z,19.43
2019-01-21T05:36:56.338Z,19.70
2019-01-21T05:40:12.455Z,19.10
2019-01-21T05:43:47.046Z,19.77
2019-01-21T05:46:38.880Z,29.13
2019-01-21T05:49:57.019Z,22.90
2019-01-21T05:53:04.780Z,21.30
2019-01-21T05:56:22.764Z,19.43
2019-01-21T05:59:33.479Z,18.77
2019-01-21T06:02:43.070Z,19.87
2019-01-21T06:06:05.438Z,18.17
2019-01-21T06:09:05.262Z,19.23
2019-01-21T06:12:00.432Z,18.30
2019-01-21T06:15:06.872Z,16.63
2019-01-21T06:18:25.248Z,20.27
2019-01-21T06:21:31.580Z,20.80
2019-01-21T06:24:10.254Z,18.00
2019-01-21T06:27:20.978Z,18.50
2019-01-21T06:30:28.463Z,19.00
2019-01-21T06:33:34.722Z,17.80
2019-01-21T06:36:24.177Z,20.00
2019-01-21T06:39:40.013Z,19.13
2019-01-21T06:42:39.876Z,18.50
2019-01-21T06:46:17.840Z,18.20
2019-01-21T06:49:34.577Z,17.30
2019-01-21T06:52:44.950Z,17.60
2019-01-21T06:55:58.551Z,22.70
2019-01-21T06:58:44.150Z,19.27
2019-01-21T07:02:09.360Z,19.20
2019-01-21T07:05:23.349Z,19.27
2019-01-21T07:08:37.982Z,18.10
2019-01-21T07:11:27.552Z,17.97
2019-01-21T07:14:50.063Z,20.20
2019-01-21T07:18:10.728Z,18.60
2019-01-21T07:21:21.486Z,17.00
2019-01-21T07:24:17.253Z,18.10
2019-01-21T07:27:30.564Z,19.30
2019-01-21T07:30:43.739Z,19.33
2019-01-21T07:33:43.358Z,18.47
2019-01-21T07:36:35.093Z,17.97
2019-01-21T07:39:44.240Z,20.10
2019-01-21T07:43:01.304Z,21.00
2019-01-21T07:46:13.760Z,20.23
2019-01-21T07:49:22.605Z,19.27
2019-01-21T07:52:50.952Z,19.80
2019-01-21T07:55:56.947Z,19.13
2019-01-21T07:59:19.318Z,20.07
2019-01-21T08:02:27.492Z,17.80
2019-01-21T08:05:46.994Z,18.43
2019-01-21T08:08:32.502Z,19.27
2019-01-21T08:11:24.045Z,18.60
2019-01-21T08:14:27.942Z,19.93
2019-01-21T08:17:33.218Z,20.00
2019-01-21T08:20:18.846Z,21.30
2019-01-21T08:23:42.023Z,19.53
2019-01-21T08:26:47.109Z,20.00
2019-01-21T08:29:37.850Z,21.60
2019-01-21T08:32:47.175Z,20.20
2019-01-21T08:36:03.555Z,21.07
2019-01-21T08:39:23.215Z,22.60
2019-01-21T08:42:29.351Z,21.77
2019-01-21T08:45:44.019Z,24.80
2019-01-21T08:48:33.350Z,22.67
2019-01-21T08:51:40.353Z,21.63
2019-01-21T08:54:47.783Z,21.77
2019-01-21T08:58:07.421Z,22.33
2019-01-21T09:01:22.706Z,23.40
2019-01-21T09:04:42.348Z,21.90
2019-01-21T09:07:38.161Z,22.00
2019-01-21T09:10:31.318Z,24.20
2019-01-21T09:13:19.029Z,22.93
2019-01-21T09:16:21.488Z,20.67
2019-01-21T09:19:25.615Z,23.13
2019-01-21T09:22:41.414Z,23.40
2019-01-21T09:25:48.915Z,23.00
2019-01-21T09:29:01.494Z,22.70
2019-01-21T09:31:57.399Z,21.47
2019-01-21T09:35:01.719Z,22.07
2019-01-21T09:37:55.443Z,22.30
2019-01-21T09:41:10.920Z,25.90
2019-01-21T09:44:16.423Z,22.00
2019-01-21T09:46:46.128Z,22.00
2019-01-21T09:49:13.784Z,23.97
2019-01-21T09:51:58.965Z,24.07
2019-01-21T09:54:29.269Z,24.57
2019-01-21T09:56:59.481Z,26.80
2019-01-21T09:59:30.493Z,26.40
2019-01-21T10:02:03.313Z,26.17
2019-01-21T10:04:58.318Z,26.57
2019-01-21T10:07:33.245Z,25.17
2019-01-21T10:10:21.419Z,24.57
2019-01-21T10:13:30.909Z,25.53
2019-01-21T10:16:22.373Z,24.77
2019-01-21T10:19:38.762Z,24.80
2019-01-21T10:23:07.477Z,26.90
2019-01-21T10:26:16.759Z,23.80
2019-01-21T10:29:05.882Z,26.20
2019-01-21T10:32:14.803Z,29.07
2019-01-21T10:35:07.135Z,25.27
2019-01-21T10:38:05.316Z,26.10
2019-01-21T10:41:12.477Z,25.13
2019-01-21T10:44:19.583Z,26.43
2019-01-21T10:47:18.172Z,25.93
2019-01-21T10:50:15.773Z,25.40
2019-01-21T10:53:26.060Z,25.23
2019-01-21T10:56:08.180Z,25.73
2019-01-21T10:59:04.909Z,26.00
2019-01-21T11:02:33.251Z,23.47
2019-01-21T11:05:10.411Z,25.60
2019-01-21T11:08:26.287Z,21.80
2019-01-21T11:11:39.624Z,23.77
2019-01-21T11:14:43.714Z,23.10
2019-01-21T11:18:11.832Z,24.27
2019-01-21T11:21:14.411Z,24.27
2019-01-21T11:24:05.585Z,24.50
2019-01-21T11:27:31.220Z,22.10
2019-01-21T11:30:18.964Z,21.90
2019-01-21T11:33:32.120Z,22.73
2019-01-21T11:37:00.767Z,24.47
2019-01-21T11:40:16.736Z,22.27
2019-01-21T11:43:22.098Z,21.97
2019-01-21T11:46:29.555Z,20.70
2019-01-21T11:50:01.130Z,20.30
2019-01-21T11:52:49.415Z,17.37
2019-01-21T11:55:54.232Z,19.87
2019-01-21T11:59:01.675Z,19.20
2019-01-21T12:02:05.453Z,17.87
2019-01-21T12:05:14.334Z,18.90
2019-01-21T12:08:24.454Z,19.40
2019-01-21T12:11:17.204Z,19.70
2019-01-21T12:14:38.218Z,18.23
2019-01-21T12:17:42.949Z,21.03
2019-01-21T12:20:55.477Z,20.27
2019-01-21T12:23:42.981Z,29.10
2019-01-21T12:26:29.099Z,46.43
2019-01-21T12:29:47.334Z,26.53
2019-01-21T12:33:09.696Z,20.27
2019-01-21T12:35:56.302Z,17.70
2019-01-21T12:39:24.889Z,20.60
2019-01-21T12:42:05.760Z,18.33
2019-01-21T12:44:56.800Z,23.83
2019-01-21T12:48:01.472Z,20.93
2019-01-21T12:51:30.213Z,19.73
2019-01-21T12:54:26.139Z,19.43
2019-01-21T12:57:42.818Z,19.00
2019-01-21T13:00:53.176Z,17.60
2019-01-21T13:04:11.701Z,18.17
2019-01-21T13:07:27.449Z,19.57
2019-01-21T13:10:22.406Z,21.40
2019-01-21T13:13:27.921Z,20.43
2019-01-21T13:16:09.773Z,18.90
2019-01-21T13:19:16.618Z,16.60
2019-01-21T13:21:57.871Z,19.33
2019-01-21T13:24:40.978Z,18.87
2019-01-21T13:27:52.566Z,17.97
2019-01-21T13:31:12.040Z,19.40
2019-01-21T13:34:31.829Z,19.73
2019-01-21T13:37:36.200Z,17.70
2019-01-21T13:40:58.528Z,20.60
2019-01-21T13:43:57.932Z,22.23
2019-01-21T13:47:04.432Z,20.47
2019-01-21T13:49:53.616Z,48.00
2019-01-21T13:53:18.200Z,28.60
2019-01-21T13:56:19.428Z,44.60
2019-01-21T13:59:16.659Z,37.17
2019-01-21T14:02:15.925Z,32.73
2019-01-21T14:05:09.490Z,26.20
2019-01-21T14:07:52.091Z,31.67
2019-01-21T14:11:00.793Z,27.70
2019-01-21T14:13:36.447Z,24.37
2019-01-21T14:16:24.097Z,26.77
2019-01-21T14:19:25.336Z,25.63
2019-01-21T14:22:32.336Z,24.37
2019-01-21T14:25:26.745Z,27.30
2019-01-21T14:28:53.008Z,26.40
2019-01-21T14:32:24.919Z,24.47
2019-01-21T14:35:26.488Z,27.50
2019-01-21T14:38:42.619Z,26.80
2019-01-21T14:41:56.044Z,25.60
2019-01-21T14:45:05.600Z,24.20
2019-01-21T14:48:17.309Z,26.50
2019-01-21T14:51:17.154Z,24.63
2019-01-21T14:54:36.410Z,24.93
2019-01-21T14:57:47.220Z,26.40
2019-01-21T15:00:48.255Z,26.37
2019-01-21T15:03:53.252Z,23.90
2019-01-21T15:06:58.217Z,25.40
2019-01-21T15:10:20.145Z,25.70
2019-01-21T15:13:12.402Z,23.57
2019-01-21T15:15:54.917Z,26.77
2019-01-21T15:19:18.785Z,26.20
2019-01-21T15:22:20.252Z,26.80
2019-01-21T15:25:42.675Z,28.90
2019-01-21T15:28:46.297Z,28.20
2019-01-21T15:32:03.436Z,27.40
2019-01-21T15:35:06.948Z,26.07
2019-01-21T15:38:18.790Z,25.47
2019-01-21T15:41:25.227Z,27.30
2019-01-21T15:44:15.032Z,27.83
2019-01-21T15:47:16.323Z,26.90
2019-01-21T15:50:13.979Z,24.60
2019-01-21T15:53:15.244Z,24.73
2019-01-21T15:55:53.546Z,28.50
2019-01-21T15:58:51.973Z,62.80
2019-01-21T16:02:14.778Z,28.40
2019-01-21T16:05:18.991Z,25.50
2019-01-21T16:07:59.108Z,24.63
2019-01-21T16:10:53.520Z,25.30
2019-01-21T16:13:40.162Z,25.23
2019-01-21T16:16:37.408Z,27.10
2019-01-21T16:19:13.860Z,26.70
2019-01-21T16:22:20.152Z,25.43
2019-01-21T16:25:22.528Z,26.30
2019-01-21T16:28:48.468Z,25.40
2019-01-21T16:31:32.224Z,26.63
2019-01-21T16:34:52.550Z,25.60
2019-01-21T16:38:02.981Z,27.20
2019-01-21T16:41:10.242Z,26.63
2019-01-21T16:43:40.224Z,25.30
2019-01-21T16:46:09.937Z,25.60
2019-01-21T16:48:39.428Z,26.50
2019-01-21T16:51:08.916Z,24.10
2019-01-21T16:53:38.546Z,25.23
2019-01-21T16:56:08.488Z,26.67
2019-01-21T16:58:40.245Z,27.97
2019-01-21T17:01:09.545Z,27.70
2019-01-21T17:03:39.133Z,27.83
2019-01-21T17:06:08.732Z,29.10
2019-01-21T17:08:38.571Z,28.50
2019-01-21T17:11:08.112Z,27.20
2019-01-21T17:13:37.485Z,29.00
2019-01-21T17:16:07.298Z,26.40
2019-01-21T17:18:37.165Z,26.17
2019-01-21T17:21:06.556Z,28.67
2019-01-21T17:23:36.889Z,29.20
2019-01-21T17:26:07.314Z,28.70
2019-01-21T17:28:36.704Z,28.50
2019-01-21T17:31:06.083Z,28.20
2019-01-21T17:33:35.581Z,28.00
2019-01-21T17:36:05.123Z,28.20
2019-01-21T17:38:34.559Z,27.17
2019-01-21T17:41:03.966Z,27.17
2019-01-21T17:43:33.339Z,29.13
2019-01-21T17:46:02.722Z,25.77
2019-01-21T17:48:32.121Z,26.97
2019-01-21T17:51:01.406Z,28.00
2019-01-21T17:53:30.762Z,28.50
2019-01-21T17:56:01.121Z,29.37
2019-01-21T17:58:30.764Z,28.67
2019-01-21T18:01:00.129Z,29.17
2019-01-21T18:03:30.561Z,30.17
2019-01-21T18:05:59.978Z,31.47
2019-01-21T18:08:29.361Z,31.07
2019-01-21T18:10:58.758Z,29.30
2019-01-21T18:13:28.265Z,29.40
2019-01-21T18:15:57.665Z,29.73
2019-01-21T18:18:26.968Z,30.37
2019-01-21T18:20:56.728Z,30.30
2019-01-21T18:23:26.081Z,28.63
2019-01-21T18:25:55.496Z,30.87
2019-01-21T18:28:25.337Z,30.70
2019-01-21T18:30:57.018Z,31.60
2019-01-21T18:33:26.425Z,32.20
2019-01-21T18:35:55.819Z,30.87
2019-01-21T18:38:25.262Z,33.20
2019-01-21T18:40:54.604Z,33.20
2019-01-21T18:43:23.915Z,37.67
2019-01-21T18:45:53.221Z,34.90
2019-01-21T18:48:22.716Z,31.43
2019-01-21T18:50:52.050Z,32.77
2019-01-21T18:53:21.412Z,32.27
2019-01-21T18:55:50.753Z,34.10
2019-01-21T18:58:20.055Z,33.93
2019-01-21T19:00:49.353Z,34.10
2019-01-21T19:03:18.781Z,35.13
2019-01-21T19:05:48.242Z,34.57
2019-01-21T19:08:17.584Z,34.27
2019-01-21T19:10:46.888Z,34.33
2019-01-21T19:13:16.131Z,36.43
2019-01-21T19:15:45.395Z,35.23
2019-01-21T19:18:14.792Z,35.40
2019-01-21T19:20:44.317Z,35.20
2019-01-21T19:23:13.511Z,32.30
2019-01-21T19:25:42.897Z,35.17
2019-01-21T19:28:12.282Z,33.73
2019-01-21T19:30:41.735Z,35.90
2019-01-21T19:33:11.398Z,33.47
2019-01-21T19:35:40.712Z,33.47
2019-01-21T19:38:10.046Z,36.33
2019-01-21T19:40:39.434Z,34.50
2019-01-21T19:43:08.968Z,34.60
2019-01-21T19:45:38.330Z,35.67
2019-01-21T19:48:07.643Z,35.10
2019-01-21T19:50:37.072Z,35.13
2019-01-21T19:53:07.397Z,35.33
2019-01-21T19:55:42.174Z,38.23
2019-01-21T19:58:12.284Z,32.33
2019-01-21T20:00:41.554Z,34.17
2019-01-21T20:03:10.863Z,33.70
2019-01-21T20:05:40.225Z,36.20
2019-01-21T20:08:09.554Z,37.60
2019-01-21T20:10:38.936Z,34.50
2019-01-21T20:13:10.407Z,34.77
2019-01-21T20:15:39.739Z,33.13
2019-01-21T20:18:09.151Z,32.63
2019-01-21T20:20:40.436Z,32.47
2019-01-21T20:23:09.815Z,33.37
2019-01-21T20:25:39.131Z,34.13
2019-01-21T20:28:08.437Z,33.60
2019-01-21T20:30:37.810Z,33.47
2019-01-21T20:33:07.388Z,33.37
2019-01-21T20:35:36.716Z,33.80
2019-01-21T20:38:06.120Z,33.90
2019-01-21T20:40:35.373Z,34.73
2019-01-21T20:43:04.577Z,34.80
2019-01-21T20:45:33.938Z,35.43
2019-01-21T20:48:03.291Z,34.40
2019-01-21T20:50:33.228Z,36.53
2019-01-21T20:53:02.531Z,35.67
2019-01-21T20:55:31.873Z,34.00
2019-01-21T20:58:01.590Z,35.07
2019-01-21T21:00:31.006Z,31.43
2019-01-21T21:03:00.366Z,33.97
2019-01-21T21:05:29.995Z,33.97
2019-01-21T21:07:59.296Z,37.10
2019-01-21T21:10:28.568Z,33.60
2019-01-21T21:12:57.940Z,38.93
2019-01-21T21:15:30.048Z,33.60
2019-01-21T21:17:59.425Z,32.47
2019-01-21T21:20:29.991Z,33.50
2019-01-21T21:22:59.331Z,31.20
2019-01-21T21:25:28.729Z,33.37
2019-01-21T21:27:58.087Z,34.20
2019-01-21T21:30:31.952Z,31.10
2019-01-21T21:33:01.316Z,30.60
2019-01-21T21:35:30.632Z,28.67
2019-01-21T21:38:00.363Z,31.93
2019-01-21T21:40:29.668Z,32.20
2019-01-21T21:42:59.113Z,33.40
2019-01-21T21:45:28.450Z,32.73
2019-01-21T21:48:01.133Z,31.37
2019-01-21T21:50:31.361Z,32.70
2019-01-21T21:53:00.752Z,30.67
2019-01-21T21:55:30.656Z,35.13
2019-01-21T21:58:00.346Z,34.20
2019-01-21T22:00:29.959Z,33.73
2019-01-21T22:02:59.365Z,30.40
2019-01-21T22:05:29.064Z,29.43
2019-01-21T22:07:58.419Z,31.50
2019-01-21T22:10:29.202Z,30.53
2019-01-21T22:12:58.588Z,31.50
2019-01-21T22:15:28.388Z,31.07
2019-01-21T22:17:57.797Z,33.40
2019-01-21T22:20:27.247Z,29.77
2019-01-21T22:22:56.659Z,31.97
2019-01-21T22:25:26.079Z,30.73
2019-01-21T22:27:55.453Z,32.00
2019-01-21T22:30:27.040Z,33.67
2019-01-21T22:32:56.708Z,31.80
2019-01-21T22:35:26.562Z,35.37
2019-01-21T22:37:55.923Z,38.40
2019-01-21T22:40:25.686Z,40.70
2019-01-21T22:42:55.087Z,38.67
2019-01-21T22:45:24.399Z,32.90
2019-01-21T22:47:53.776Z,33.67
2019-01-21T22:50:23.237Z,33.47
2019-01-21T22:52:52.602Z,33.00
2019-01-21T22:55:22.426Z,33.37
2019-01-21T22:57:51.874Z,35.50
2019-01-21T23:01:07.914Z,33.50
2019-01-21T23:03:37.587Z,32.63
2019-01-21T23:06:07.455Z,31.40
2019-01-21T23:08:36.856Z,30.33
2019-01-21T23:11:06.299Z,33.83
2019-01-21T23:13:35.868Z,32.73
2019-01-21T23:16:05.390Z,35.80
2019-01-21T23:18:35.172Z,32.00
2019-01-21T23:21:05.941Z,31.20
2019-01-21T23:23:35.361Z,31.97
2019-01-21T23:26:04.794Z,31.90
2019-01-21T23:28:34.167Z,33.13
2019-01-21T23:31:04.314Z,25.77
2019-01-21T23:33:33.697Z,29.00
2019-01-21T23:36:03.418Z,30.53
2019-01-21T23:38:32.809Z,25.40
2019-01-21T23:41:02.246Z,28.13
2019-01-21T23:43:31.503Z,25.53
2019-01-21T23:46:00.898Z,28.40
2019-01-21T23:48:30.285Z,28.30
2019-01-21T23:50:59.789Z,25.07
2019-01-21T23:53:29.216Z,29.23
2019-01-21T23:55:58.487Z,25.13
2019-01-21T23:58:27.930Z,23.67
